Time;durP1;ratioP1;P1;durP2;ratioP2;P2;SDS_P1;SDS_P2;PMS_P1;PMS_P2;Temp;Humidity;BMP_temperature;BMP_pressure;BME280_temperature;BME280_humidity;BME280_pressure;Samples;Min_cycle;Max_cycle;Signal;HPM_P1;HPM_P2
2022/01/20 00:02:05;;;;;;;16.95;1.60;;;3.50;99.90;;;;;;5031856;28;20457;-79
2022/01/20 00:04:47;;;;;;;12.95;1.67;;;3.50;99.90;;;;;;5032520;28;20040;-79
2022/01/20 00:07:35;;;;;;;12.75;1.50;;;3.40;99.90;;;;;;5034815;28;20124;-79
2022/01/20 00:28:37;;;;;;;20.90;4.10;;;3.70;99.90;;;;;;5053655;28;20902;-78
2022/01/20 00:31:13;;;;;;;13.57;1.80;;;3.70;99.90;;;;;;5032128;28;20069;-79
2022/01/20 00:33:46;;;;;;;17.10;2.08;;;3.60;99.90;;;;;;5049391;28;20052;-79
2022/01/20 00:38:42;;;;;;;13.88;1.90;;;3.40;99.90;;;;;;5064921;28;20053;-79
2022/01/20 00:41:14;;;;;;;12.07;1.40;;;3.40;99.90;;;;;;5048271;28;20052;-80
2022/01/20 00:43:42;;;;;;;10.77;2.00;;;3.40;99.90;;;;;;5061439;28;20154;-78
2022/01/20 00:46:08;;;;;;;17.40;2.22;;;3.40;99.90;;;;;;5070289;28;20448;-82
2022/01/20 00:48:34;;;;;;;21.85;2.83;;;3.30;99.90;;;;;;5055538;28;20049;-80
2022/01/20 00:50:59;;;;;;;16.58;1.73;;;3.30;99.90;;;;;;5042195;28;20073;-80
2022/01/20 00:53:25;;;;;;;17.98;2.10;;;3.20;99.90;;;;;;5047652;28;20060;-78
2022/01/20 00:55:51;;;;;;;14.60;1.70;;;3.20;99.90;;;;;;5046615;28;20052;-79
2022/01/20 00:58:17;;;;;;;11.60;1.55;;;3.10;99.90;;;;;;5038146;28;20053;-79
2022/01/20 01:00:42;;;;;;;13.23;2.97;;;3.20;99.90;;;;;;5057674;28;20060;-80
2022/01/20 01:03:08;;;;;;;11.30;1.90;;;3.10;99.90;;;;;;5078201;28;20045;-81
2022/01/20 01:05:40;;;;;;;15.13;1.52;;;3.20;99.90;;;;;;5049588;28;20045;-79
2022/01/20 01:08:07;;;;;;;13.63;2.13;;;3.20;99.90;;;;;;5035717;28;20414;-80
2022/01/20 01:10:35;;;;;;;10.90;1.65;;;3.10;99.90;;;;;;5062276;28;20081;-81
2022/01/20 01:13:11;;;;;;;9.07;1.40;;;3.20;99.90;;;;;;5053245;28;20080;-79
2022/01/20 01:15:41;;;;;;;;;;;3.30;99.90;;;;;;5046750;28;20049;-80
2022/01/20 01:23:36;;;;;;;19.25;2.70;;;3.30;99.90;;;;;;5031923;28;20115;-81
2022/01/20 01:26:04;;;;;;;19.05;1.92;;;3.20;99.90;;;;;;5046784;28;20048;-80
2022/01/20 01:28:31;;;;;;;17.30;1.38;;;3.40;99.90;;;;;;5082837;28;20124;-79
2022/01/20 01:34:06;;;;;;;6.00;0.88;;;3.50;99.90;;;;;;5023292;28;20052;-80
2022/01/20 01:36:46;;;;;;;14.30;1.45;;;3.70;99.90;;;;;;5079108;28;20045;-79
2022/01/20 01:39:12;;;;;;;13.70;2.13;;;3.80;99.90;;;;;;5060155;28;20055;-77
2022/01/20 01:41:39;;;;;;;8.77;1.30;;;3.90;99.90;;;;;;5053741;28;20060;-79
2022/01/20 01:44:08;;;;;;;18.40;2.55;;;3.90;99.90;;;;;;5057131;28;20081;-79
2022/01/20 01:46:35;;;;;;;5.10;0.98;;;3.80;99.90;;;;;;5052478;28;20055;-80
2022/01/20 01:49:01;;;;;;;11.63;1.65;;;3.80;99.90;;;;;;5055648;28;20080;-79
2022/01/20 01:51:27;;;;;;;11.48;1.05;;;3.50;99.90;;;;;;5061616;28;20084;-79
2022/01/20 01:53:52;;;;;;;10.00;1.23;;;3.40;99.90;;;;;;5072026;28;20053;-79
2022/01/20 01:56:19;;;;;;;11.38;1.13;;;3.20;99.90;;;;;;5058101;28;20135;-81
2022/01/20 01:58:45;;;;;;;10.07;1.50;;;3.10;99.90;;;;;;5043692;28;20124;-79
2022/01/20 02:01:10;;;;;;;6.68;0.82;;;3.00;99.90;;;;;;5021352;28;20132;-82
2022/01/20 02:03:44;;;;;;;10.60;0.90;;;3.00;99.90;;;;;;5048925;28;20044;-79
2022/01/20 02:19:29;;;;;;;10.02;1.20;;;3.00;99.90;;;;;;5050314;28;20060;-80
2022/01/20 02:22:02;;;;;;;14.18;1.23;;;3.10;99.90;;;;;;5066365;28;20045;-79
2022/01/20 02:24:28;;;;;;;7.43;0.85;;;3.20;99.90;;;;;;5055708;28;20041;-78
2022/01/20 02:26:54;;;;;;;9.43;0.90;;;3.20;99.90;;;;;;5042191;28;20075;-77
2022/01/20 02:29:20;;;;;;;10.68;1.00;;;3.30;99.90;;;;;;5045244;28;20037;-76
2022/01/20 02:31:46;;;;;;;12.75;1.83;;;3.30;99.90;;;;;;5066238;28;20049;-77
2022/01/20 02:34:14;;;;;;;13.02;1.33;;;3.30;99.90;;;;;;5047595;28;20092;-77
2022/01/20 02:36:44;;;;;;;15.07;1.17;;;3.40;99.90;;;;;;5047776;28;20041;-77
2022/01/20 02:39:58;;;;;;;10.88;0.80;;;3.40;99.90;;;;;;5082748;28;20132;-78
2022/01/20 02:47:15;;;;;;;16.88;1.70;;;3.50;99.90;;;;;;5064508;28;20103;-83
2022/01/20 02:49:42;;;;;;;8.85;1.70;;;3.50;99.90;;;;;;5049847;28;20045;-78
2022/01/20 02:52:08;;;;;;;15.63;3.05;;;3.40;99.90;;;;;;5053144;28;20068;-84
2022/01/20 02:54:34;;;;;;;16.35;2.15;;;3.20;99.90;;;;;;5048836;28;20052;-79
2022/01/20 02:57:01;;;;;;;13.15;2.40;;;3.10;99.90;;;;;;5049381;28;20040;-78
2022/01/20 02:59:27;;;;;;;18.05;2.28;;;3.10;99.90;;;;;;5049381;28;20056;-78
2022/01/20 03:01:53;;;;;;;15.80;2.20;;;3.00;99.90;;;;;;5048898;28;20064;-78
2022/01/20 03:04:23;;;;;;;16.15;2.17;;;2.90;99.90;;;;;;5050440;28;20049;-83
2022/01/20 03:06:49;;;;;;;14.88;1.90;;;2.90;99.90;;;;;;5061220;28;20044;-78
2022/01/20 03:09:15;;;;;;;14.68;1.90;;;2.90;99.90;;;;;;5051603;28;20404;-78
2022/01/20 03:11:40;;;;;;;18.17;2.17;;;2.80;99.90;;;;;;5038985;28;20052;-78
2022/01/20 03:14:06;;;;;;;25.05;2.28;;;2.80;99.90;;;;;;5041755;28;20052;-77
2022/01/20 03:16:32;;;;;;;22.38;2.22;;;2.70;99.90;;;;;;5050017;28;20854;-78
2022/01/20 03:18:57;;;;;;;23.05;2.50;;;2.80;99.90;;;;;;5040243;28;20049;-78
2022/01/20 03:21:23;;;;;;;19.58;4.82;;;2.80;99.90;;;;;;5042316;28;20049;-78
2022/01/20 03:23:49;;;;;;;26.88;2.80;;;2.90;99.90;;;;;;5046302;28;20042;-79
2022/01/20 03:26:15;;;;;;;24.25;2.70;;;2.90;99.90;;;;;;5048226;28;20449;-78
2022/01/20 03:28:41;;;;;;;22.15;2.25;;;2.90;99.90;;;;;;5048493;28;20071;-78
2022/01/20 03:31:06;;;;;;;26.35;3.17;;;2.90;99.90;;;;;;5032246;28;20390;-78
2022/01/20 03:33:32;;;;;;;26.13;3.08;;;2.80;99.90;;;;;;5029103;28;20190;-77
2022/01/20 03:35:58;;;;;;;22.17;2.97;;;2.70;99.90;;;;;;5064794;28;20037;-78
2022/01/20 03:38:24;;;;;;;22.20;2.60;;;2.70;99.90;;;;;;5039395;28;20056;-84
2022/01/20 03:40:50;;;;;;;21.77;3.85;;;2.70;99.90;;;;;;5049540;28;20044;-80
2022/01/20 03:43:16;;;;;;;24.30;3.75;;;2.70;99.90;;;;;;5040500;28;20041;-78
2022/01/20 03:45:46;;;;;;;23.30;2.47;;;2.70;99.90;;;;;;5027091;28;20094;-77
2022/01/20 03:48:12;;;;;;;26.02;3.65;;;2.60;99.90;;;;;;5036999;28;20049;-78
2022/01/20 03:53:23;;;;;;;19.98;3.75;;;2.70;99.90;;;;;;5043751;28;20068;-78
2022/01/20 03:55:49;;;;;;;23.70;3.33;;;2.60;99.90;;;;;;5074081;28;20045;-79
2022/01/20 03:58:15;;;;;;;18.33;2.85;;;2.60;99.90;;;;;;5037992;28;20159;-78
2022/01/20 04:00:43;;;;;;;20.83;2.92;;;2.60;99.90;;;;;;5055398;28;20135;-78
2022/01/20 04:03:09;;;;;;;27.40;3.47;;;2.50;99.90;;;;;;5049256;28;20060;-79
2022/01/20 04:05:38;;;;;;;25.40;3.40;;;2.50;99.90;;;;;;5048421;28;20041;-78
2022/01/20 04:08:06;;;;;;;24.85;3.38;;;2.50;99.90;;;;;;5069559;28;20513;-79
2022/01/20 04:10:32;;;;;;;26.05;3.17;;;2.50;99.90;;;;;;5040199;28;20130;-78
2022/01/20 04:12:58;;;;;;;15.95;2.35;;;2.50;99.90;;;;;;5048036;28;20080;-79
2022/01/20 04:15:28;;;;;;;18.50;2.30;;;2.50;99.90;;;;;;5043080;28;20041;-79
2022/01/20 04:17:56;;;;;;;15.70;1.65;;;2.40;99.90;;;;;;5060356;28;20099;-79
2022/01/20 04:20:22;;;;;;;12.68;1.88;;;2.40;99.90;;;;;;5046605;28;20130;-79
2022/01/20 04:22:48;;;;;;;13.18;2.33;;;2.30;99.90;;;;;;5066113;28;20115;-80
2022/01/20 04:25:13;;;;;;;22.95;2.90;;;2.20;99.90;;;;;;5045752;28;20053;-79
2022/01/20 04:27:39;;;;;;;22.92;2.40;;;2.20;99.90;;;;;;5034981;28;20041;-79
2022/01/20 04:30:05;;;;;;;14.25;2.15;;;2.00;99.90;;;;;;5033616;28;20399;-79
2022/01/20 04:32:31;;;;;;;12.55;1.70;;;1.90;99.90;;;;;;5055057;28;20425;-84
2022/01/20 04:34:56;;;;;;;9.80;1.70;;;1.80;99.90;;;;;;5047560;28;20057;-79
2022/01/20 04:37:22;;;;;;;11.88;1.98;;;1.70;99.90;;;;;;5037209;28;20511;-78
2022/01/20 04:39:50;;;;;;;10.00;1.50;;;1.60;99.90;;;;;;5047493;28;20071;-78
2022/01/20 04:42:17;;;;;;;13.63;2.00;;;1.50;99.90;;;;;;5038015;28;20053;-78
2022/01/20 04:57:50;;;;;;;15.40;1.98;;;1.50;99.90;;;;;;5068301;28;20049;-79
2022/01/20 05:00:16;;;;;;;11.40;1.60;;;1.50;99.90;;;;;;5067597;28;20041;-79
2022/01/20 05:02:42;;;;;;;15.20;2.10;;;1.50;99.90;;;;;;5064912;28;20074;-78
2022/01/20 05:05:08;;;;;;;13.70;2.22;;;1.50;99.90;;;;;;5052966;28;20056;-81
2022/01/20 05:07:35;;;;;;;18.50;2.72;;;1.50;99.90;;;;;;5033348;28;20052;-84
2022/01/20 05:10:05;;;;;;;12.27;1.67;;;1.60;99.90;;;;;;5046941;28;20501;-80
2022/01/20 05:12:59;;;;;;;15.25;1.92;;;1.70;99.90;;;;;;5051901;28;20060;-78
2022/01/20 05:15:17;;;;;;;15.23;1.97;;;1.60;99.90;;;;;;5054081;28;20065;-78
2022/01/20 05:17:42;;;;;;;16.88;1.92;;;1.80;99.90;;;;;;5046005;28;20088;-78
2022/01/20 05:20:09;;;;;;;14.95;2.78;;;1.70;99.90;;;;;;5087943;28;20076;-79
2022/01/20 05:22:34;;;;;;;11.57;2.13;;;1.70;99.90;;;;;;5072935;28;20478;-84
2022/01/20 05:25:02;;;;;;;20.25;2.55;;;1.70;99.90;;;;;;5036197;28;20090;-79
2022/01/20 05:27:27;;;;;;;15.43;2.00;;;1.80;99.90;;;;;;5052310;28;20052;-80
2022/01/20 05:29:55;;;;;;;12.45;2.15;;;1.80;99.90;;;;;;5046679;28;20041;-79
2022/01/20 05:32:24;;;;;;;12.82;1.77;;;1.80;99.90;;;;;;5083997;28;20049;-79
2022/01/20 05:34:50;;;;;;;13.90;2.17;;;1.90;99.90;;;;;;5051800;28;20067;-79
2022/01/20 05:37:16;;;;;;;5.88;1.75;;;2.00;99.90;;;;;;5045310;28;20096;-79
2022/01/20 05:39:43;;;;;;;7.03;0.80;;;2.00;99.90;;;;;;5079603;28;20555;-78
2022/01/20 05:42:08;;;;;;;2.83;1.05;;;2.00;99.90;;;;;;5054701;28;20114;-79
2022/01/20 05:44:34;;;;;;;6.38;0.88;;;2.00;99.90;;;;;;5051356;28;20053;-79
2022/01/20 05:47:06;;;;;;;11.43;1.10;;;1.90;99.90;;;;;;5076105;28;20084;-79
2022/01/20 05:49:32;;;;;;;5.82;1.10;;;1.90;99.90;;;;;;5051256;28;20486;-79
2022/01/20 05:51:58;;;;;;;8.43;1.10;;;1.70;99.90;;;;;;5046124;28;20107;-80
2022/01/20 05:54:24;;;;;;;12.23;1.30;;;1.60;99.90;;;;;;5052625;28;20057;-80
2022/01/20 05:56:50;;;;;;;6.85;1.77;;;1.50;99.90;;;;;;5064087;28;20139;-80
2022/01/20 05:59:16;;;;;;;13.27;1.42;;;1.50;99.90;;;;;;5034678;28;20060;-81
2022/01/20 06:01:45;;;;;;;11.40;2.45;;;1.40;99.90;;;;;;5051625;28;20041;-80
2022/01/20 06:04:11;;;;;;;8.23;1.40;;;1.30;99.90;;;;;;5015323;28;20045;-78
2022/01/20 06:06:37;;;;;;;11.43;1.85;;;1.30;99.90;;;;;;5026756;28;20041;-80
2022/01/20 06:09:08;;;;;;;14.43;2.22;;;1.30;99.90;;;;;;5042885;28;20049;-79
2022/01/20 06:11:34;;;;;;;19.92;1.70;;;1.30;99.90;;;;;;5051051;28;20044;-79
2022/01/20 06:14:00;;;;;;;12.57;2.03;;;1.30;99.90;;;;;;5028264;28;20586;-78
2022/01/20 06:16:26;;;;;;;10.23;1.70;;;1.20;99.90;;;;;;5033594;28;20072;-82
2022/01/20 06:18:52;;;;;;;13.20;2.13;;;1.30;99.90;;;;;;5063844;28;20041;-78
2022/01/20 06:21:18;;;;;;;13.55;2.38;;;1.50;99.90;;;;;;5052997;28;20057;-79
2022/01/20 06:23:44;;;;;;;11.90;2.38;;;1.50;99.90;;;;;;5018067;28;20037;-83
2022/01/20 06:26:09;;;;;;;13.50;2.20;;;1.60;99.90;;;;;;5014995;28;20055;-78
2022/01/20 06:28:37;;;;;;;14.38;2.33;;;1.70;99.90;;;;;;5022181;28;20128;-79
2022/01/20 06:31:03;;;;;;;19.58;3.10;;;1.80;99.90;;;;;;5067055;28;20136;-80
2022/01/20 06:33:28;;;;;;;17.75;2.67;;;1.90;99.90;;;;;;5054062;28;20049;-77
2022/01/20 06:35:55;;;;;;;16.42;2.20;;;1.90;99.90;;;;;;5065228;28;20556;-80
2022/01/20 06:38:21;;;;;;;13.75;2.03;;;1.90;99.90;;;;;;5035762;28;20052;-78
2022/01/20 06:40:47;;;;;;;12.32;2.08;;;1.80;99.90;;;;;;5055417;28;20051;-77
2022/01/20 06:43:13;;;;;;;19.05;3.20;;;1.70;99.90;;;;;;5041307;28;20506;-79
2022/01/20 06:45:38;;;;;;;13.93;2.63;;;1.70;99.90;;;;;;5033182;28;20045;-81
2022/01/20 06:48:04;;;;;;;14.32;2.45;;;1.70;99.90;;;;;;5052674;28;20699;-80
2022/01/20 06:50:30;;;;;;;23.02;2.53;;;1.70;99.90;;;;;;5035764;28;20124;-81
2022/01/20 06:52:56;;;;;;;14.43;2.45;;;1.70;99.90;;;;;;5042595;28;20053;-80
2022/01/20 06:55:22;;;;;;;15.05;2.70;;;1.90;99.90;;;;;;5050302;28;20044;-79
2022/01/20 06:57:48;;;;;;;13.60;2.03;;;2.10;99.90;;;;;;5047934;28;20041;-85
2022/01/20 07:00:17;;;;;;;13.90;2.58;;;2.20;99.90;;;;;;5055090;28;20067;-77
2022/01/20 07:02:44;;;;;;;15.73;2.22;;;2.10;99.90;;;;;;5057008;28;20044;-76
2022/01/20 07:05:11;;;;;;;16.27;1.92;;;2.10;99.90;;;;;;5054696;28;20123;-77
2022/01/20 07:07:37;;;;;;;13.73;2.47;;;1.90;99.90;;;;;;5045023;28;20791;-77
2022/01/20 07:10:04;;;;;;;14.95;1.92;;;1.90;99.90;;;;;;5036658;28;20061;-77
2022/01/20 07:12:29;;;;;;;11.93;2.63;;;1.80;99.90;;;;;;5015353;28;20041;-77
2022/01/20 07:14:55;;;;;;;14.05;1.77;;;1.70;99.90;;;;;;5041776;28;20037;-77
2022/01/20 07:17:21;;;;;;;20.23;2.15;;;1.60;99.90;;;;;;5051215;28;20047;-78
2022/01/20 07:19:47;;;;;;;21.30;2.55;;;1.60;99.90;;;;;;5034561;28;20479;-80
2022/01/20 07:22:12;;;;;;;17.30;1.80;;;1.50;99.90;;;;;;5033162;28;20064;-77
2022/01/20 07:24:38;;;;;;;17.17;2.30;;;1.50;99.90;;;;;;5083880;28;20044;-78
2022/01/20 07:27:04;;;;;;;16.20;3.05;;;1.50;99.90;;;;;;5064102;28;20041;-78
2022/01/20 07:29:31;;;;;;;15.00;2.00;;;1.40;99.90;;;;;;5031402;28;20045;-77
2022/01/20 07:31:59;;;;;;;15.27;2.22;;;1.40;99.90;;;;;;5030510;28;20060;-77
2022/01/20 07:34:25;;;;;;;12.57;2.25;;;1.60;99.90;;;;;;5041305;28;20056;-82
2022/01/20 07:36:51;;;;;;;15.20;2.10;;;1.70;99.90;;;;;;5064296;28;20102;-85
2022/01/20 07:39:17;;;;;;;11.82;1.23;;;1.80;99.90;;;;;;5047912;28;20069;-77
2022/01/20 07:41:43;;;;;;;16.10;2.28;;;2.00;99.90;;;;;;5049587;28;20056;-79
2022/01/20 07:44:09;;;;;;;13.48;1.83;;;2.00;99.90;;;;;;5037408;28;20491;-83
2022/01/20 07:46:36;;;;;;;18.27;2.63;;;2.00;99.90;;;;;;5057738;28;20051;-76
2022/01/20 07:49:02;;;;;;;10.88;2.40;;;1.90;99.90;;;;;;5049105;28;20441;-78
2022/01/20 07:51:28;;;;;;;21.60;2.30;;;1.80;99.90;;;;;;5047313;28;20052;-80
2022/01/20 07:53:54;;;;;;;16.67;2.28;;;1.70;99.90;;;;;;5060697;28;20090;-83
2022/01/20 07:56:20;;;;;;;13.25;2.10;;;1.60;99.90;;;;;;5031442;28;20052;-78
2022/01/20 07:58:45;;;;;;;16.20;2.00;;;1.50;99.90;;;;;;5048825;28;20145;-77
2022/01/20 08:01:11;;;;;;;10.48;2.70;;;1.50;99.90;;;;;;5048420;28;20447;-78
2022/01/20 08:03:37;;;;;;;15.85;2.85;;;1.50;99.90;;;;;;5049278;28;20414;-79
2022/01/20 08:06:03;;;;;;;14.35;2.58;;;1.50;99.90;;;;;;5049155;28;20053;-78
2022/01/20 08:08:29;;;;;;;14.32;2.35;;;1.60;99.90;;;;;;5046259;28;20045;-78
2022/01/20 08:10:54;;;;;;;18.63;2.90;;;1.60;99.90;;;;;;5052628;28;20152;-83
2022/01/20 08:13:20;;;;;;;13.10;2.45;;;1.60;99.90;;;;;;5041456;28;20041;-77
2022/01/20 08:15:46;;;;;;;17.77;2.20;;;1.70;99.90;;;;;;5046956;28;20102;-78
2022/01/20 08:18:13;;;;;;;15.32;2.03;;;1.80;99.90;;;;;;5049199;28;20052;-78
2022/01/20 08:20:38;;;;;;;19.40;3.35;;;1.90;99.90;;;;;;5043686;28;20456;-80
2022/01/20 08:23:04;;;;;;;17.38;2.80;;;2.00;99.90;;;;;;5068252;28;20041;-79
2022/01/20 08:25:30;;;;;;;15.88;2.40;;;2.10;99.90;;;;;;5044436;28;20041;-77
2022/01/20 08:27:56;;;;;;;13.45;2.72;;;2.20;99.90;;;;;;5049673;28;20414;-82
2022/01/20 08:30:24;;;;;;;15.88;3.13;;;2.20;99.90;;;;;;5048965;28;20049;-78
2022/01/20 08:32:50;;;;;;;30.65;4.03;;;2.20;99.90;;;;;;5074671;28;20033;-81
2022/01/20 08:35:18;;;;;;;21.00;4.20;;;2.20;99.90;;;;;;5038912;28;20049;-77
2022/01/20 08:37:45;;;;;;;16.60;3.30;;;2.10;99.90;;;;;;5051889;28;20487;-78
2022/01/20 08:40:16;;;;;;;19.90;4.28;;;2.00;99.90;;;;;;5045736;28;20490;-81
2022/01/20 08:42:44;;;;;;;10.82;2.80;;;1.90;99.90;;;;;;5053905;28;20149;-77
2022/01/20 08:45:13;;;;;;;15.63;2.75;;;1.80;99.90;;;;;;5053379;28;20049;-80
2022/01/20 08:47:39;;;;;;;15.07;2.65;;;1.80;99.90;;;;;;5053584;28;20048;-79
2022/01/20 08:50:07;;;;;;;15.95;3.38;;;1.80;99.90;;;;;;5052613;28;20116;-78
2022/01/20 08:52:33;;;;;;;12.30;2.42;;;1.90;99.90;;;;;;5052126;28;20061;-76
2022/01/20 08:54:59;;;;;;;12.25;1.95;;;2.00;99.90;;;;;;5053528;28;20414;-78
2022/01/20 08:57:26;;;;;;;11.15;1.85;;;2.10;99.90;;;;;;5047845;28;20034;-78
2022/01/20 08:59:52;;;;;;;10.20;1.60;;;2.20;99.90;;;;;;5072699;28;20053;-77
2022/01/20 09:02:18;;;;;;;16.35;2.17;;;2.20;99.90;;;;;;5053511;28;20052;-78
2022/01/20 09:04:44;;;;;;;15.00;2.13;;;2.30;99.90;;;;;;5059680;28;20132;-79
2022/01/20 09:07:09;;;;;;;14.07;1.70;;;2.50;99.90;;;;;;5047597;28;20083;-77
2022/01/20 09:09:41;;;;;;;11.93;1.45;;;2.80;99.90;;;;;;5052744;28;20047;-78
2022/01/20 09:17:30;;;;;;;14.00;2.28;;;2.70;99.90;;;;;;5044147;28;20116;-78
2022/01/20 09:19:57;;;;;;;11.32;2.15;;;2.40;99.90;;;;;;5047692;28;20081;-78
2022/01/20 09:22:23;;;;;;;9.52;1.60;;;2.20;99.90;;;;;;5041700;28;20128;-79
2022/01/20 09:24:49;;;;;;;13.48;2.20;;;1.90;99.90;;;;;;5053080;28;20048;-78
2022/01/20 09:27:15;;;;;;;11.43;1.77;;;1.80;99.90;;;;;;5035210;28;20041;-81
2022/01/20 09:29:41;;;;;;;9.10;1.63;;;1.80;99.90;;;;;;5050637;28;20121;-78
2022/01/20 09:32:10;;;;;;;10.00;1.50;;;1.80;99.90;;;;;;5051444;28;20067;-79
2022/01/20 09:34:36;;;;;;;10.15;1.30;;;1.90;99.90;;;;;;5051638;28;20044;-79
2022/01/20 09:37:02;;;;;;;8.23;1.92;;;2.20;99.90;;;;;;5047252;28;20067;-80
2022/01/20 09:39:28;;;;;;;8.52;1.88;;;2.50;99.90;;;;;;5042975;28;20498;-79
2022/01/20 09:41:54;;;;;;;11.65;1.88;;;2.50;99.90;;;;;;5029494;28;20041;-79
2022/01/20 09:44:20;;;;;;;15.30;1.85;;;2.50;99.90;;;;;;5051773;28;20049;-79
2022/01/20 09:46:47;;;;;;;11.75;2.05;;;2.50;99.90;;;;;;5072397;28;20048;-79
2022/01/20 09:49:13;;;;;;;7.45;1.15;;;2.60;99.90;;;;;;5034377;28;20057;-79
2022/01/20 09:51:40;;;;;;;12.60;1.77;;;2.60;99.90;;;;;;5048037;28;20048;-79
2022/01/20 09:54:07;;;;;;;14.90;1.60;;;2.60;99.90;;;;;;5046673;28;20080;-82
2022/01/20 09:56:34;;;;;;;11.52;1.60;;;2.50;99.90;;;;;;5066079;28;20199;-80
2022/01/20 09:59:00;;;;;;;11.30;2.28;;;2.50;99.90;;;;;;5083758;28;20391;-79
2022/01/20 10:01:37;;;;;;;8.40;1.58;;;2.40;99.90;;;;;;5034255;28;20041;-78
2022/01/20 10:04:03;;;;;;;10.27;1.52;;;2.20;99.90;;;;;;5051747;28;20056;-79
2022/01/20 10:06:29;;;;;;;11.75;1.70;;;2.10;99.90;;;;;;5047190;28;20111;-78
2022/01/20 10:09:00;;;;;;;12.07;1.40;;;2.00;99.90;;;;;;5042542;28;20095;-75
2022/01/20 10:11:29;;;;;;;11.40;1.25;;;2.00;99.90;;;;;;5053145;28;20049;-75
2022/01/20 10:13:59;;;;;;;16.42;2.03;;;2.20;99.90;;;;;;5054479;28;20395;-76
2022/01/20 10:16:25;;;;;;;9.40;1.80;;;2.60;99.90;;;;;;5053569;28;20047;-76
2022/01/20 10:18:59;;;;;;;12.77;1.75;;;2.80;99.90;;;;;;5054889;28;20045;-76
2022/01/20 10:21:43;;;;;;;19.52;2.15;;;3.00;99.90;;;;;;5053518;28;20049;-76
2022/01/20 10:24:12;;;;;;;14.20;2.38;;;3.10;99.90;;;;;;5070226;28;20055;-86
2022/01/20 10:26:39;;;;;;;12.75;2.10;;;3.20;99.90;;;;;;5086864;28;20048;-76
2022/01/20 10:29:14;;;;;;;13.32;2.88;;;3.30;99.90;;;;;;5086907;28;20045;-75
2022/01/20 10:31:51;;;;;;;13.52;2.22;;;3.50;99.90;;;;;;5054271;28;20041;-76
2022/01/20 10:34:19;;;;;;;11.60;1.58;;;3.70;99.90;;;;;;5053468;28;20037;-77
2022/01/20 10:36:54;;;;;;;14.73;2.38;;;3.70;99.90;;;;;;5069362;28;20110;-75
2022/01/20 10:39:37;;;;;;;14.75;2.97;;;3.70;99.90;;;;;;5053224;28;20060;-75
2022/01/20 10:42:12;;;;;;;10.68;2.58;;;3.60;99.90;;;;;;5086157;28;20048;-78
2022/01/20 10:44:56;;;;;;;13.48;1.80;;;3.40;99.90;;;;;;5050179;28;20052;-78
2022/01/20 10:47:27;;;;;;;8.40;1.60;;;3.20;99.90;;;;;;5045709;28;20068;-79
2022/01/20 10:49:54;;;;;;;8.30;1.65;;;3.20;99.90;;;;;;5081771;28;20049;-77
2022/01/20 10:52:22;;;;;;;16.83;1.75;;;3.30;99.90;;;;;;5051288;28;20521;-77
2022/01/20 10:54:51;;;;;;;13.68;1.67;;;3.40;99.90;;;;;;5045150;28;20045;-80
2022/01/20 10:57:17;;;;;;;9.57;2.10;;;3.60;99.90;;;;;;5048927;28;20045;-79
2022/01/20 10:59:50;;;;;;;9.73;1.40;;;3.70;99.90;;;;;;5049866;28;20055;-78
2022/01/20 11:02:22;;;;;;;12.88;1.98;;;3.70;99.90;;;;;;5049631;28;20135;-79
2022/01/20 11:04:49;;;;;;;9.32;2.10;;;3.70;99.90;;;;;;5048827;28;20138;-79
2022/01/20 11:07:15;;;;;;;11.57;2.00;;;3.40;99.90;;;;;;5049440;28;20064;-79
2022/01/20 11:09:46;;;;;;;10.95;1.77;;;3.30;99.90;;;;;;5049860;28;20053;-79
2022/01/20 11:12:14;;;;;;;11.55;3.22;;;3.10;99.90;;;;;;5081993;28;20092;-84
2022/01/20 11:14:42;;;;;;;19.17;1.80;;;3.10;99.90;;;;;;5050097;28;20040;-78
2022/01/20 11:17:09;;;;;;;10.63;2.30;;;3.10;99.90;;;;;;5065356;28;20516;-81
2022/01/20 11:19:39;;;;;;;14.00;4.00;;;3.10;99.90;;;;;;5056361;28;20047;-79
2022/01/20 11:22:08;;;;;;;11.40;1.67;;;3.20;99.90;;;;;;5049282;28;20087;-80
2022/01/20 11:24:35;;;;;;;13.20;2.25;;;3.50;99.90;;;;;;5046572;28;20037;-80
2022/01/20 11:27:02;;;;;;;8.55;1.98;;;3.90;99.90;;;;;;5030727;28;20037;-78
2022/01/20 11:29:48;;;;;;;10.63;2.03;;;4.00;99.90;;;;;;5041818;28;20076;-80
2022/01/20 11:32:26;;;;;;;12.87;1.93;;;4.00;99.90;;;;;;5065867;28;20041;-84
2022/01/20 11:35:04;;;;;;;12.93;2.95;;;3.50;99.90;;;;;;5046891;28;20049;-83
2022/01/20 11:37:40;;;;;;;15.40;1.98;;;3.10;99.90;;;;;;5048488;28;20081;-81
2022/01/20 11:40:26;;;;;;;24.80;2.05;;;3.00;99.90;;;;;;5046365;28;20107;-82
2022/01/20 11:43:03;;;;;;;12.80;2.63;;;3.00;99.90;;;;;;5047603;28;20048;-82
2022/01/20 11:45:51;;;;;;;11.98;1.58;;;3.00;99.90;;;;;;5047525;28;20110;-82
2022/01/20 11:48:21;;;;;;;15.48;2.25;;;2.90;99.90;;;;;;5073941;28;20091;-83
2022/01/20 11:51:04;;;;;;;14.20;2.08;;;2.90;99.90;;;;;;5047051;28;20052;-80
2022/01/20 11:53:30;;;;;;;8.43;1.35;;;3.00;99.90;;;;;;5040823;28;20131;-82
2022/01/20 11:55:56;;;;;;;10.10;1.95;;;3.30;99.90;;;;;;5046575;28;20128;-83
2022/01/20 11:58:24;;;;;;;11.23;1.42;;;3.40;99.90;;;;;;5048594;28;20056;-81
2022/01/20 12:01:01;;;;;;;3.22;0.65;;;3.30;99.90;;;;;;5048099;28;20045;-81
2022/01/20 12:03:27;;;;;;;6.35;1.55;;;2.90;99.90;;;;;;5044783;28;20509;-81
2022/01/20 12:06:02;;;;;;;5.40;1.95;;;2.60;99.90;;;;;;5046296;28;20052;-78
2022/01/20 12:08:28;;;;;;;9.43;1.20;;;2.50;99.90;;;;;;5037748;28;20479;-75
2022/01/20 12:11:20;;;;;;;6.53;1.30;;;2.40;99.90;;;;;;5042997;28;20133;-80
2022/01/20 12:13:47;;;;;;;8.88;1.85;;;2.30;99.90;;;;;;5044085;28;20107;-76
2022/01/20 12:16:22;;;;;;;8.45;1.45;;;2.20;99.90;;;;;;5050754;28;20086;-75
2022/01/20 12:18:53;;;;;;;12.57;2.13;;;2.20;99.90;;;;;;5035918;28;20064;-77
2022/01/20 12:21:19;;;;;;;12.85;1.80;;;2.10;99.90;;;;;;5036902;28;20060;-84
2022/01/20 12:23:47;;;;;;;7.95;1.13;;;2.20;99.90;;;;;;5049082;28;20049;-76
2022/01/20 12:26:13;;;;;;;10.68;1.70;;;2.30;99.90;;;;;;5051082;28;20728;-76
2022/01/20 12:28:39;;;;;;;9.60;2.45;;;2.60;99.90;;;;;;5046820;28;20056;-76
2022/01/20 12:31:08;;;;;;;14.00;2.13;;;2.80;99.90;;;;;;5062012;28;20202;-76
2022/01/20 12:33:40;;;;;;;12.23;1.52;;;3.00;99.90;;;;;;5049356;28;20110;-76
2022/01/20 12:36:12;;;;;;;13.43;2.05;;;3.10;99.90;;;;;;5055378;28;20056;-76
2022/01/20 12:38:39;;;;;;;10.93;1.30;;;3.10;99.90;;;;;;5055119;28;20060;-77
2022/01/20 12:41:24;;;;;;;9.48;1.75;;;3.10;99.90;;;;;;5049896;28;20119;-73
2022/01/20 12:43:51;;;;;;;15.68;1.90;;;3.10;99.90;;;;;;5047759;28;20080;-78
2022/01/20 12:46:23;;;;;;;11.25;2.00;;;3.00;99.90;;;;;;5063619;28;20049;-77
2022/01/20 12:49:04;;;;;;;15.88;2.08;;;3.10;99.90;;;;;;5049361;28;20041;-80
2022/01/20 12:51:38;;;;;;;10.10;1.95;;;3.30;99.90;;;;;;5045521;28;20048;-79
2022/01/20 12:54:17;;;;;;;15.23;2.00;;;3.50;99.90;;;;;;5070693;28;20058;-80
2022/01/20 12:56:46;;;;;;;15.52;2.50;;;3.50;99.90;;;;;;5030801;28;20186;-79
2022/01/20 12:59:20;;;;;;;10.68;1.70;;;3.50;99.90;;;;;;5049898;28;20099;-78
2022/01/20 13:01:47;;;;;;;16.00;3.35;;;3.40;99.90;;;;;;5038689;28;20491;-78
2022/01/20 13:04:16;;;;;;;17.20;2.00;;;3.10;99.90;;;;;;5047014;28;20056;-77
2022/01/20 13:06:50;;;;;;;14.23;1.83;;;3.00;99.90;;;;;;5054388;28;20049;-77
2022/01/20 13:09:18;;;;;;;13.30;2.53;;;3.10;99.90;;;;;;5066945;28;20051;-77
2022/01/20 13:11:59;;;;;;;16.23;1.63;;;3.10;99.90;;;;;;5049440;28;20129;-77
2022/01/20 13:14:39;;;;;;;13.02;2.60;;;3.20;99.90;;;;;;5049881;28;20056;-84
2022/01/20 13:17:07;;;;;;;19.42;2.08;;;3.20;99.90;;;;;;5048486;28;20045;-77
2022/01/20 13:19:47;;;;;;;18.63;2.78;;;3.20;99.90;;;;;;5046237;28;20065;-77
2022/01/20 13:22:37;;;;;;;11.60;2.10;;;3.20;99.90;;;;;;5053186;28;20060;-77
2022/01/20 13:25:16;;;;;;;14.02;2.33;;;3.10;99.90;;;;;;5053676;28;20049;-77
2022/01/20 13:28:04;;;;;;;19.80;4.18;;;3.20;99.90;;;;;;5038918;28;20060;-76
2022/01/20 13:30:36;;;;;;;12.05;2.55;;;3.40;99.90;;;;;;5052629;28;20045;-77
2022/01/20 13:33:03;;;;;;;21.27;3.10;;;3.70;99.90;;;;;;5078347;28;20053;-77
2022/01/20 13:35:46;;;;;;;16.80;2.33;;;3.70;99.90;;;;;;5038717;28;20449;-77
2022/01/20 13:38:13;;;;;;;14.68;2.28;;;3.90;99.90;;;;;;5053521;28;20386;-76
2022/01/20 13:40:47;;;;;;;27.02;10.20;;;3.80;99.90;;;;;;5052464;28;20461;-77
2022/01/20 13:46:04;;;;;;;9.10;2.83;;;3.40;99.90;;;;;;5051974;28;20460;-76
2022/01/20 13:48:32;;;;;;;11.68;4.32;;;3.20;99.90;;;;;;5085147;28;20128;-78
2022/01/20 13:51:00;;;;;;;10.70;2.17;;;3.20;99.90;;;;;;5037336;28;20132;-79
2022/01/20 13:53:28;;;;;;;8.15;1.67;;;3.20;99.90;;;;;;5053634;28;20052;-77
2022/01/20 13:56:01;;;;;;;9.93;2.10;;;3.40;99.90;;;;;;5049348;28;20045;-78
2022/01/20 13:58:28;;;;;;;3.13;1.20;;;3.60;99.90;;;;;;5046841;28;20045;-78
2022/01/20 14:00:55;;;;;;;7.28;2.20;;;3.60;99.90;;;;;;5035566;28;20041;-77
2022/01/20 14:03:22;;;;;;;13.93;2.92;;;3.60;99.90;;;;;;5047749;28;20049;-77
2022/01/20 14:05:50;;;;;;;8.48;2.33;;;3.50;99.90;;;;;;5059196;28;20095;-79
2022/01/20 14:08:16;;;;;;;8.15;1.85;;;3.30;99.90;;;;;;5047638;28;20055;-76